Time;durP1;ratioP1;P1;durP2;ratioP2;P2;SDS_P1;SDS_P2;PMS_P1;PMS_P2;Temp;Humidity;BMP_temperature;BMP_pressure;BME280_temperature;BME280_humidity;BME280_pressure;Samples;Min_cycle;Max_cycle;Signal;HPM_P1;HPM_P2
2023/09/29 00:00:12;;;;;;;;;4.00;4.00;;;;;23.03;46.82;101060.69;4993880;28;45378;-61
2023/09/29 00:02:37;;;;;;;;;4.00;3.00;;;;;23.04;47.03;101062.41;4989600;28;45541;-62
2023/09/29 00:05:03;;;;;;;;;4.00;2.33;;;;;23.01;46.91;101068.84;4993477;28;45353;-62
2023/09/29 00:07:29;;;;;;;;;4.50;3.00;;;;;22.98;46.99;101047.59;4998674;28;45393;-62
2023/09/29 00:09:54;;;;;;;;;2.75;2.50;;;;;22.99;47.27;101057.38;5000414;28;45278;-62
2023/09/29 00:12:19;;;;;;;;;4.25;3.75;;;;;22.98;47.33;101054.75;4995985;28;45415;-62
2023/09/29 00:14:45;;;;;;;;;3.00;3.00;;;;;22.96;47.42;101052.19;4993763;28;45278;-62
2023/09/29 00:17:10;;;;;;;;;3.50;3.50;;;;;22.93;47.25;101055.06;4995537;28;50165;-62
2023/09/29 00:19:41;;;;;;;;;4.75;4.00;;;;;22.91;47.80;101054.28;5000115;28;48848;-61
2023/09/29 00:22:07;;;;;;;;;3.25;2.25;;;;;22.88;47.54;101047.28;5000035;28;49663;-62
2023/09/29 00:24:32;;;;;;;;;5.00;5.00;;;;;22.91;47.75;101048.91;5000144;28;46441;-62
2023/09/29 00:26:57;;;;;;;;;3.75;2.25;;;;;22.87;47.68;101044.72;4999851;28;45167;-62
2023/09/29 00:29:23;;;;;;;;;4.25;3.75;;;;;22.86;47.74;101043.84;5000319;28;45262;-62
2023/09/29 00:31:48;;;;;;;;;3.50;3.50;;;;;22.86;47.83;101046.50;4999913;28;46174;-62
2023/09/29 00:34:13;;;;;;;;;3.00;3.00;;;;;22.86;47.79;101048.34;4999987;28;50102;-62
2023/09/29 00:36:38;;;;;;;;;3.25;3.00;;;;;22.86;48.01;101051.88;4999772;28;52840;-61
2023/09/29 00:39:10;;;;;;;;;2.75;2.00;;;;;22.85;47.91;101038.56;5000332;28;45307;-62
2023/09/29 00:41:37;;;;;;;;;4.00;4.00;;;;;22.85;48.06;101035.91;4999292;28;45321;-62
2023/09/29 00:44:02;;;;;;;;;4.75;4.75;;;;;22.84;48.19;101039.53;4999615;28;45468;-62
2023/09/29 00:46:29;;;;;;;;;0.00;0.00;;;;;22.83;48.50;101040.47;4999860;28;45362;-62
2023/09/29 00:48:55;;;;;;;;;4.75;3.25;;;;;22.76;48.29;101023.94;5000153;28;45380;-62
2023/09/29 00:51:21;;;;;;;;;4.00;4.00;;;;;22.73;48.03;101022.31;4999552;28;45252;-62
2023/09/29 00:53:49;;;;;;;;;5.00;5.00;;;;;22.78;48.58;101042.56;5007235;28;46298;-62
2023/09/29 00:56:15;;;;;;;;;5.00;3.00;;;;;22.79;48.43;101033.59;5019015;28;45362;-61
2023/09/29 00:58:40;;;;;;;;;6.25;6.25;;;;;22.76;48.59;101031.13;5012837;28;45418;-62
2023/09/29 01:01:11;;;;;;;;;4.25;3.50;;;;;22.77;48.43;101028.34;4999898;28;45569;-62
2023/09/29 01:03:37;;;;;;;;;4.00;3.00;;;;;22.75;48.44;101026.72;4999889;28;45398;-62
2023/09/29 01:06:06;;;;;;;;;3.50;3.50;;;;;22.75;48.63;101030.25;5000326;28;45444;-62
2023/09/29 01:08:31;;;;;;;;;4.00;4.00;;;;;22.70;48.86;101016.28;5022396;28;45294;-62
2023/09/29 01:10:57;;;;;;;;;4.25;4.00;;;;;22.72;49.00;101007.19;5020978;28;45484;-61
2023/09/29 01:13:22;;;;;;;;;5.50;4.00;;;;;22.71;49.10;101000.09;5010952;28;46535;-62
2023/09/29 01:15:48;;;;;;;;;5.75;3.25;;;;;22.67;49.08;100990.53;5007858;28;45338;-62
2023/09/29 01:18:16;;;;;;;;;4.50;4.00;;;;;22.67;48.89;100982.50;5003305;28;45302;-61
2023/09/29 01:20:41;;;;;;;;;3.75;3.00;;;;;22.69;49.16;100991.31;5002881;28;45357;-62
2023/09/29 01:23:07;;;;;;;;;4.75;4.00;;;;;22.67;48.88;100985.19;5002962;28;45869;-61
2023/09/29 01:25:34;;;;;;;;;4.00;4.00;;;;;22.65;49.00;100984.41;5002621;28;45496;-62
2023/09/29 01:28:01;;;;;;;;;4.25;4.25;;;;;22.65;49.01;100983.56;5003006;28;45404;-62
2023/09/29 01:30:27;;;;;;;;;3.50;3.50;;;;;22.65;49.34;100978.19;4984923;28;45235;-62
2023/09/29 01:32:56;;;;;;;;;4.25;4.25;;;;;22.62;49.06;100973.88;5002627;28;46233;-62
2023/09/29 01:35:23;;;;;;;;;3.75;3.25;;;;;22.61;49.57;100974.84;5001088;28;45363;-62
2023/09/29 01:37:50;;;;;;;;;5.00;3.75;;;;;22.64;49.17;100976.47;5011080;28;45640;-61
2023/09/29 01:40:18;;;;;;;;;3.75;3.75;;;;;22.61;49.76;100961.44;5001908;28;45322;-61
2023/09/29 01:42:44;;;;;;;;;4.00;2.75;;;;;22.63;49.39;100975.63;5002362;28;45548;-62
2023/09/29 01:45:14;;;;;;;;;4.75;4.25;;;;;22.62;49.46;100975.72;5001186;28;45274;-62
2023/09/29 01:47:41;;;;;;;;;3.25;3.25;;;;;22.64;49.37;100990.75;4984953;28;45489;-62
2023/09/29 01:50:07;;;;;;;;;7.00;4.00;;;;;22.63;49.26;100982.78;5003023;28;45499;-62
2023/09/29 01:52:33;;;;;;;;;3.00;3.00;;;;;22.67;49.75;100997.72;5001108;28;46449;-62
2023/09/29 01:55:00;;;;;;;;;6.50;4.00;;;;;22.67;49.77;100989.69;5018836;28;45198;-61
2023/09/29 01:57:25;;;;;;;;;5.00;3.75;;;;;22.65;49.82;100995.13;5011149;28;45185;-63
2023/09/29 01:59:51;;;;;;;;;6.00;5.00;;;;;22.65;49.71;100997.78;5005272;28;45317;-62
2023/09/29 02:02:17;;;;;;;;;5.00;5.00;;;;;22.65;49.60;100996.94;5002353;28;46003;-62
2023/09/29 02:04:43;;;;;;;;;3.00;3.00;;;;;22.63;49.78;101002.41;5002121;28;45421;-61
2023/09/29 02:07:09;;;;;;;;;5.50;5.50;;;;;22.63;50.22;100999.72;4995183;28;45524;-62
2023/09/29 02:09:34;;;;;;;;;3.75;3.75;;;;;22.62;50.09;101006.03;5021527;28;45529;-61
2023/09/29 02:12:01;;;;;;;;;4.75;4.50;;;;;22.61;49.70;101000.78;5010618;28;45450;-65
2023/09/29 02:14:26;;;;;;;;;5.25;5.25;;;;;22.58;49.95;100988.44;5015315;28;45405;-62
2023/09/29 02:16:51;;;;;;;;;4.00;3.50;;;;;22.58;50.02;100988.44;5001924;28;45259;-61
2023/09/29 02:19:19;;;;;;;;;6.75;6.25;;;;;22.58;50.05;100990.22;5001287;28;45536;-62
2023/09/29 02:21:45;;;;;;;;;4.25;4.25;;;;;22.56;49.94;100988.53;5000654;28;47188;-61
2023/09/29 02:24:11;;;;;;;;;5.00;3.75;;;;;22.55;49.75;100988.59;5001810;28;45250;-62
2023/09/29 02:26:38;;;;;;;;;5.25;4.75;;;;;22.55;50.16;100989.47;5001822;28;45374;-62
2023/09/29 02:29:05;;;;;;;;;3.50;3.25;;;;;22.54;50.07;100993.09;5002469;28;46757;-62
2023/09/29 02:31:31;;;;;;;;;6.00;4.75;;;;;22.53;50.15;100990.53;5009425;28;46139;-62
2023/09/29 02:33:57;;;;;;;;;4.00;4.00;;;;;22.51;49.84;101001.31;5002598;28;45182;-62
2023/09/29 02:36:22;;;;;;;;;4.00;4.00;;;;;22.54;49.93;101002.94;5009503;28;45163;-62
2023/09/29 02:38:48;;;;;;;;;3.25;3.25;;;;;22.55;50.33;101004.66;5001712;28;45215;-62
2023/09/29 02:41:13;;;;;;;;;2.25;2.25;;;;;22.55;50.04;101002.00;5001681;28;45255;-62
2023/09/29 02:43:39;;;;;;;;;5.00;3.50;;;;;22.52;50.29;101005.72;5001378;28;45255;-62
2023/09/29 02:46:04;;;;;;;;;4.75;4.25;;;;;22.47;50.26;101006.97;5002051;28;45216;-62
2023/09/29 02:48:30;;;;;;;;;6.25;4.50;;;;;22.49;50.52;101010.38;5000307;28;45365;-62
2023/09/29 02:50:55;;;;;;;;;4.00;4.00;;;;;22.49;50.52;101010.38;5001571;28;46334;-62
2023/09/29 02:53:21;;;;;;;;;3.25;3.25;;;;;22.49;50.69;101008.59;5005710;28;45428;-62
2023/09/29 02:55:47;;;;;;;;;4.75;4.75;;;;;22.49;50.26;101007.72;5021073;28;45357;-62
2023/09/29 02:58:13;;;;;;;;;3.25;2.75;;;;;22.44;50.19;100997.31;4999926;28;45574;-62
2023/09/29 03:00:41;;;;;;;;;3.00;3.00;;;;;22.46;50.58;100991.84;5001490;28;45721;-62
2023/09/29 03:03:09;;;;;;;;;2.00;2.00;;;;;22.44;50.64;100999.97;5001359;28;45325;-62
2023/09/29 03:05:34;;;;;;;;;4.75;3.00;;;;;22.42;50.54;101001.88;5001281;28;45355;-62
2023/09/29 03:08:01;;;;;;;;;3.00;2.00;;;;;22.39;50.77;100994.91;5017316;28;45496;-62
2023/09/29 03:10:28;;;;;;;;;3.00;3.00;;;;;22.39;50.26;101007.44;5020893;28;46469;-62
2023/09/29 03:12:57;;;;;;;;;3.50;2.75;;;;;22.37;50.56;101004.81;5011588;28;45334;-62
2023/09/29 03:15:23;;;;;;;;;3.00;2.00;;;;;22.32;50.92;101008.72;5020871;28;45278;-62
2023/09/29 03:17:49;;;;;;;;;4.33;2.67;;;;;22.33;50.66;101013.97;5020742;28;45227;-62
2023/09/29 03:20:16;;;;;;;;;3.00;2.00;;;;;22.29;50.98;101003.53;5020935;28;45256;-62
2023/09/29 03:22:45;;;;;;;;;2.00;2.00;;;;;22.27;50.78;101005.44;5020818;28;45503;-61
2023/09/29 03:25:11;;;;;;;;;4.00;2.00;;;;;22.25;50.98;101005.53;5020567;28;45318;-61
2023/09/29 03:27:38;;;;;;;;;2.33;2.33;;;;;22.22;51.14;101005.72;5002485;28;45582;-62
2023/09/29 03:30:05;;;;;;;;;1.00;1.00;;;;;22.23;51.07;101015.47;5019507;28;45583;-62
2023/09/29 03:32:30;;;;;;;;;4.00;3.00;;;;;22.15;51.43;100993.63;5020702;28;45568;-62
2023/09/29 03:34:56;;;;;;;;;1.33;1.00;;;;;22.15;51.17;100991.84;5020617;28;45325;-62
2023/09/29 03:37:23;;;;;;;;;4.75;2.75;;;;;22.13;50.93;100996.41;5020831;28;45332;-61
2023/09/29 03:39:48;;;;;;;;;5.00;3.25;;;;;22.09;51.61;101016.28;5020469;28;46353;-62
2023/09/29 03:42:14;;;;;;;;;2.50;2.00;;;;;22.06;51.44;101009.28;5002328;28;46151;-61
2023/09/29 03:44:40;;;;;;;;;2.00;2.00;;;;;22.07;51.33;101011.03;5020699;28;45408;-62
2023/09/29 03:47:05;;;;;;;;;3.67;2.33;;;;;22.05;51.17;101020.94;5020563;28;45322;-62
2023/09/29 03:49:31;;;;;;;;;4.00;2.50;;;;;22.03;51.37;101014.81;5020360;28;45286;-62
2023/09/29 03:51:57;;;;;;;;;5.25;3.00;;;;;21.98;51.03;101008.88;5020480;28;45270;-62
2023/09/29 03:54:23;;;;;;;;;3.75;3.00;;;;;21.98;51.49;101013.38;5020389;28;45547;-62
2023/09/29 03:56:51;;;;;;;;;4.75;3.25;;;;;21.92;51.58;101001.19;5019766;28;45559;-61
2023/09/29 03:59:17;;;;;;;;;1.50;1.00;;;;;21.90;51.35;101003.97;5008027;28;46324;-62
2023/09/29 04:01:43;;;;;;;;;4.75;2.75;;;;;21.87;51.23;101008.63;5000279;28;45323;-62
2023/09/29 04:04:09;;;;;;;;;3.00;2.50;;;;;21.86;51.23;101020.28;5000727;28;45321;-62
2023/09/29 04:06:34;;;;;;;;;3.75;2.75;;;;;21.83;51.69;101015.97;5005691;28;45378;-62
2023/09/29 04:08:59;;;;;;;;;3.75;3.00;;;;;21.80;51.55;101008.13;5019603;28;46155;-62
2023/09/29 04:11:26;;;;;;;;;3.00;3.00;;;;;21.79;51.77;101013.56;5013780;28;51260;-62
2023/09/29 04:13:51;;;;;;;;;1.00;1.00;;;;;21.75;51.72;101011.06;5012976;28;45246;-62
2023/09/29 04:16:17;;;;;;;;;3.50;2.50;;;;;21.73;51.80;101010.25;5000597;28;45200;-62
2023/09/29 04:18:42;;;;;;;;;3.00;3.00;;;;;21.68;52.01;101012.34;5000286;28;45343;-61
2023/09/29 04:21:12;;;;;;;;;4.33;3.00;;;;;21.66;51.78;101022.28;4998299;28;45302;-61
2023/09/29 04:23:37;;;;;;;;;3.25;2.25;;;;;21.65;51.63;101025.91;5013472;28;45412;-62
2023/09/29 04:26:03;;;;;;;;;2.33;2.33;;;;;21.62;51.74;101031.41;5000034;28;45318;-61
2023/09/29 04:28:28;;;;;;;;;5.00;5.00;;;;;21.59;51.73;101048.47;4999904;28;46106;-61
2023/09/29 04:30:53;;;;;;;;;4.00;2.50;;;;;21.62;52.38;101073.34;5000126;28;45336;-62
2023/09/29 04:33:19;;;;;;;;;1.00;1.00;;;;;21.58;52.41;101067.28;5000056;28;45279;-62
2023/09/29 04:35:44;;;;;;;;;3.00;3.00;;;;;21.59;52.17;101075.22;5000004;28;45457;-61
2023/09/29 04:38:09;;;;;;;;;1.33;1.33;;;;;21.58;51.98;101078.00;4999928;28;45450;-61
2023/09/29 04:40:35;;;;;;;;;4.00;2.50;;;;;21.58;52.54;101083.34;5001040;28;45338;-61
2023/09/29 04:43:02;;;;;;;;;2.67;2.00;;;;;21.58;52.47;101081.53;4998757;28;45357;-61
2023/09/29 04:45:27;;;;;;;;;4.25;3.00;;;;;21.52;52.93;101073.81;5019417;28;45484;-62
2023/09/29 04:47:53;;;;;;;;;2.00;2.00;;;;;21.57;52.71;101082.47;5006326;28;45267;-64
2023/09/29 04:50:18;;;;;;;;;3.00;2.00;;;;;21.56;52.56;101075.41;5006557;28;45465;-63
2023/09/29 04:52:43;;;;;;;;;6.50;4.25;;;;;21.54;52.75;101082.59;5006450;28;45228;-64
2023/09/29 04:55:09;;;;;;;;;4.00;3.50;;;;;21.55;52.46;101087.03;5025208;28;45258;-64
2023/09/29 04:57:34;;;;;;;;;2.00;2.00;;;;;21.56;52.38;101079.91;5025973;28;46056;-64
2023/09/29 04:59:59;;;;;;;;;4.75;2.00;;;;;21.58;52.38;101091.34;5008380;28;45223;-64
2023/09/29 05:02:29;;;;;;;;;5.00;3.25;;;;;21.57;52.86;101090.50;5006497;28;45581;-64
2023/09/29 05:04:54;;;;;;;;;2.00;2.00;;;;;21.62;52.45;101089.38;5006094;28;45385;-63
2023/09/29 05:07:19;;;;;;;;;3.00;1.75;;;;;21.63;52.72;101099.13;5017693;28;46420;-64
2023/09/29 05:09:45;;;;;;;;;3.00;3.00;;;;;21.63;52.95;101085.75;5020275;28;45294;-64
2023/09/29 05:12:12;;;;;;;;;7.50;7.50;;;;;21.63;52.45;101091.09;5005817;28;45424;-64
2023/09/29 05:14:37;;;;;;;;;4.00;2.25;;;;;21.66;53.33;101101.63;5019093;28;45401;-64
2023/09/29 05:17:03;;;;;;;;;5.75;3.25;;;;;21.66;52.48;101101.63;5004811;28;45336;-64
2023/09/29 05:19:28;;;;;;;;;4.00;4.00;;;;;21.65;52.81;101089.22;5006800;28;45274;-64
2023/09/29 05:21:53;;;;;;;;;5.75;3.00;;;;;21.68;52.75;101099.75;5012741;28;45422;-64
2023/09/29 05:24:18;;;;;;;;;3.50;3.50;;;;;21.69;52.53;101088.94;5019180;28;45556;-64
2023/09/29 05:26:44;;;;;;;;;3.00;3.00;;;;;21.71;52.98;101100.44;5005801;28;45426;-64
2023/09/29 05:29:09;;;;;;;;;6.75;3.50;;;;;21.73;53.13;101106.53;5005746;28;45376;-64
2023/09/29 05:31:34;;;;;;;;;3.25;2.25;;;;;21.73;52.66;101108.38;5005938;28;45398;-63
2023/09/29 05:34:00;;;;;;;;;5.00;4.00;;;;;21.71;53.09;101111.13;5005846;28;46292;-63
2023/09/29 05:36:27;;;;;;;;;6.25;3.00;;;;;21.78;52.88;101116.16;5005147;28;54264;-64
2023/09/29 05:38:52;;;;;;;;;2.75;2.50;;;;;21.78;52.83;101117.00;5005666;28;45420;-62
2023/09/29 05:41:17;;;;;;;;;3.50;3.00;;;;;21.79;52.97;101121.41;5005741;28;45396;-61
2023/09/29 05:43:43;;;;;;;;;4.00;3.50;;;;;21.79;52.75;101131.25;5003352;28;52454;-62
2023/09/29 05:46:08;;;;;;;;;3.00;3.00;;;;;21.79;53.15;101137.44;5005944;28;45472;-62
2023/09/29 05:48:33;;;;;;;;;1.67;1.67;;;;;21.77;53.00;101136.66;5005696;28;45303;-62
2023/09/29 05:51:00;;;;;;;;;6.25;2.75;;;;;21.77;53.74;101131.31;5005360;28;50279;-62
2023/09/29 05:53:25;;;;;;;;;3.00;3.00;;;;;21.73;53.58;101135.97;5007329;28;45473;-61
2023/09/29 05:55:50;;;;;;;;;6.00;4.00;;;;;21.68;53.74;101127.31;5021883;28;45313;-62
2023/09/29 05:58:17;;;;;;;;;8.33;6.67;;;;;21.74;53.09;101144.88;5017987;28;45475;-62
2023/09/29 06:00:42;;;;;;;;;4.00;3.00;;;;;21.72;53.18;101147.63;5002627;28;45425;-62
2023/09/29 06:03:08;;;;;;;;;5.50;4.25;;;;;21.72;53.26;101150.31;5002236;28;45316;-62
2023/09/29 06:05:34;;;;;;;;;5.00;4.50;;;;;21.73;53.20;101157.34;5002126;28;46053;-62
2023/09/29 06:07:59;;;;;;;;;6.00;3.75;;;;;21.70;53.17;101160.22;5019358;28;45318;-62
2023/09/29 06:10:25;;;;;;;;;4.00;3.25;;;;;21.70;53.23;101162.03;5021901;28;45310;-64
2023/09/29 06:12:51;;;;;;;;;5.75;4.50;;;;;21.69;53.28;101163.84;5014218;28;45435;-62
2023/09/29 06:15:16;;;;;;;;;6.33;4.67;;;;;21.70;53.20;101170.91;5014700;28;45556;-63
2023/09/29 06:17:41;;;;;;;;;7.25;6.75;;;;;21.66;52.94;101166.69;5001748;28;45441;-63
2023/09/29 06:20:07;;;;;;;;;4.00;3.00;;;;;21.67;53.11;101163.06;4991818;28;48681;-63
2023/09/29 06:22:34;;;;;;;;;5.00;4.00;;;;;21.69;52.78;101171.00;5015126;28;45380;-64
2023/09/29 06:25:00;;;;;;;;;7.75;4.00;;;;;21.69;52.88;101173.69;5001766;28;45451;-63
2023/09/29 06:27:27;;;;;;;;;8.50;6.75;;;;;21.67;53.38;101179.13;5001530;28;45480;-64
2023/09/29 06:29:52;;;;;;;;;3.00;2.00;;;;;21.66;52.88;101172.03;5001672;28;45587;-66
2023/09/29 06:32:18;;;;;;;;;8.25;5.00;;;;;21.69;53.07;101179.03;5001522;28;45239;-65
2023/09/29 06:34:43;;;;;;;;;10.25;5.25;;;;;21.69;52.91;101187.91;5001745;28;46100;-65
2023/09/29 06:37:09;;;;;;;;;11.50;6.00;;;;;21.70;53.17;101188.78;5001615;28;45461;-65
2023/09/29 06:39:35;;;;;;;;;8.75;4.25;;;;;21.70;53.22;101178.94;5001925;28;45294;-65
2023/09/29 06:42:00;;;;;;;;;6.00;4.50;;;;;21.71;52.60;101182.47;5001325;28;45243;-65
2023/09/29 06:44:26;;;;;;;;;10.00;7.50;;;;;21.75;53.25;101184.91;5001373;28;45429;-65
2023/09/29 06:46:51;;;;;;;;;8.75;6.00;;;;;21.81;53.00;101190.84;5001545;28;45578;-65
2023/09/29 06:49:17;;;;;;;;;11.50;4.50;;;;;21.82;53.00;101197.94;5001545;28;48216;-65
2023/09/29 06:51:42;;;;;;;;;5.25;5.25;;;;;21.82;52.95;101192.59;5001406;28;45441;-65
2023/09/29 06:54:08;;;;;;;;;10.75;6.50;;;;;21.82;53.52;101197.94;5012334;28;45545;-65
2023/09/29 06:56:33;;;;;;;;;6.75;5.00;;;;;21.58;52.90;101150.19;5046979;22;45393;-65
2023/09/29 06:58:59;;;;;;;;;5.50;4.25;;;;;21.84;52.70;101196.91;5061487;28;45233;-65
2023/09/29 07:01:26;;;;;;;;;6.75;4.50;;;;;21.87;52.99;101219.94;5061065;28;45479;-65
2023/09/29 07:03:51;;;;;;;;;6.75;4.50;;;;;21.79;53.13;101214.16;5033192;28;46455;-65
2023/09/29 07:06:17;;;;;;;;;7.00;6.25;;;;;21.87;52.94;101246.69;5054202;28;45458;-65
2023/09/29 07:08:43;;;;;;;;;4.75;4.75;;;;;21.86;52.83;101239.63;5022883;28;45569;-65
2023/09/29 07:11:08;;;;;;;;;7.00;5.00;;;;;21.88;52.81;101248.44;5040800;28;45251;-65
2023/09/29 07:13:33;;;;;;;;;9.50;7.00;;;;;21.92;52.31;101263.34;5022486;28;45380;-65
2023/09/29 07:15:59;;;;;;;;;8.00;5.00;;;;;21.91;52.78;101261.63;5040821;28;45266;-65
2023/09/29 07:18:24;;;;;;;;;5.75;4.25;;;;;21.95;52.57;101263.22;5041124;28;45530;-65
2023/09/29 07:20:52;;;;;;;;;6.25;4.75;;;;;21.95;52.71;101268.56;5040825;28;45555;-65
2023/09/29 07:23:21;;;;;;;;;6.00;2.75;;;;;21.97;52.49;101280.03;5019539;28;47308;-65
2023/09/29 07:25:46;;;;;;;;;6.00;4.00;;;;;21.96;52.50;101282.78;5037586;28;45507;-65
2023/09/29 07:28:13;;;;;;;;;5.00;5.00;;;;;21.94;52.44;101276.66;5040709;28;45325;-64
2023/09/29 07:30:41;;;;;;;;;2.67;1.00;;;;;21.95;52.40;101284.63;5040442;28;45475;-65
2023/09/29 07:33:06;;;;;;;;;5.75;5.25;;;;;21.98;52.40;101289.78;5040448;28;45266;-65
2023/09/29 07:35:31;;;;;;;;;5.00;5.00;;;;;21.96;52.74;101299.72;5040290;28;45367;-65
2023/09/29 07:37:59;;;;;;;;;4.00;3.00;;;;;21.97;52.83;101309.47;5040825;28;45844;-65
2023/09/29 07:40:24;;;;;;;;;4.25;3.50;;;;;21.95;52.57;101315.84;5022402;28;46006;-65
2023/09/29 07:42:49;;;;;;;;;5.50;4.00;;;;;21.95;52.68;101307.81;5040171;28;46809;-65
2023/09/29 07:45:15;;;;;;;;;6.75;5.00;;;;;21.94;52.72;101300.72;5040311;28;45430;-65
2023/09/29 07:47:41;;;;;;;;;5.25;3.75;;;;;21.92;52.82;101312.41;5018704;28;45453;-65
2023/09/29 07:50:07;;;;;;;;;7.00;4.00;;;;;21.97;52.44;101328.19;5038897;28;45470;-65
2023/09/29 07:52:37;;;;;;;;;4.50;3.25;;;;;21.97;52.73;101322.84;5040017;28;45399;-65
2023/09/29 07:55:02;;;;;;;;;6.00;5.67;;;;;21.99;52.85;101333.47;5038312;28;45753;-65
2023/09/29 07:57:28;;;;;;;;;5.33;2.67;;;;;21.98;52.81;101337.09;5049478;28;45514;-65
2023/09/29 07:59:53;;;;;;;;;5.67;3.67;;;;;21.97;52.57;101336.22;5040096;28;45305;-66
2023/09/29 08:02:19;;;;;;;;;3.67;3.67;;;;;21.99;52.61;101339.69;5039959;28;56000;-65
2023/09/29 08:04:44;;;;;;;;;5.67;3.00;;;;;21.99;52.76;101352.22;5042104;28;45243;-66
2023/09/29 08:07:11;;;;;;;;;5.33;2.33;;;;;21.99;52.67;101361.09;5049724;28;45457;-66
2023/09/29 08:09:37;;;;;;;;;3.33;1.00;;;;;21.98;52.76;101375.41;5051425;28;45592;-65
2023/09/29 08:12:02;;;;;;;;;4.00;2.00;;;;;21.98;52.99;101375.41;5039583;28;46174;-66
2023/09/29 08:14:27;;;;;;;;;2.25;1.00;;;;;21.97;52.62;101376.34;5039990;28;45443;-66
2023/09/29 08:16:53;;;;;;;;;4.50;4.50;;;;;21.94;53.00;101373.84;5039557;28;45396;-66
2023/09/29 08:19:18;;;;;;;;;3.33;3.00;;;;;21.95;53.03;101369.34;5039882;28;45329;-66
2023/09/29 08:21:44;;;;;;;;;5.50;4.25;;;;;21.93;52.66;101372.09;5039974;28;45380;-66
2023/09/29 08:24:09;;;;;;;;;3.33;2.00;;;;;21.95;53.22;101388.06;5039527;28;45317;-66
2023/09/29 08:26:34;;;;;;;;;2.33;1.67;;;;;21.98;52.72;101390.63;5039840;28;45516;-66
2023/09/29 08:29:00;;;;;;;;;1.33;0.00;;;;;21.98;52.39;101386.13;5021737;28;45563;-66
2023/09/29 08:31:26;;;;;;;;;3.00;2.00;;;;;22.00;52.64;101396.72;5039401;28;46396;-66
2023/09/29 08:33:51;;;;;;;;;5.50;5.50;;;;;21.96;52.94;101379.09;5039452;28;45250;-66
2023/09/29 08:36:17;;;;;;;;;2.00;2.00;;;;;22.00;52.69;101402.97;5039607;28;45389;-66
2023/09/29 08:38:42;;;;;;;;;2.00;0.00;;;;;21.99;53.07;101408.41;5039605;28;45452;-66
2023/09/29 08:41:08;;;;;;;;;3.67;0.00;;;;;22.00;52.84;101416.34;5039785;28;46301;-66
2023/09/29 08:43:33;;;;;;;;;2.00;0.67;;;;;22.01;53.29;101425.22;5021397;28;45925;-66
2023/09/29 08:45:59;;;;;;;;;1.00;0.67;;;;;21.98;53.39;101428.06;5039763;28;45298;-66
2023/09/29 08:48:29;;;;;;;;;2.67;0.00;;;;;22.00;53.07;101437.75;5039476;28;45249;-66
2023/09/29 08:51:00;;;;;;;;;0.00;0.00;;;;;22.00;53.09;101443.09;5039772;28;45476;-66
2023/09/29 08:53:26;;;;;;;;;1.00;1.00;;;;;22.00;52.75;101453.81;5044534;28;45365;-66
2023/09/29 08:55:56;;;;;;;;;2.33;1.00;;;;;22.00;52.98;101456.47;5057146;28;45434;-66
2023/09/29 08:58:23;;;;;;;;;0.00;0.00;;;;;22.01;52.63;101454.66;5040568;28;45258;-66
2023/09/29 09:00:49;;;;;;;;;0.00;0.00;;;;;22.01;52.53;101450.19;5039051;28;46676;-66
2023/09/29 09:03:14;;;;;;;;;0.33;0.00;;;;;22.00;53.07;101467.19;5039191;28;45460;-66
2023/09/29 09:05:40;;;;;;;;;0.67;0.67;;;;;21.99;52.70;101448.53;5049317;28;45170;-66
2023/09/29 09:08:05;;;;;;;;;0.00;0.00;;;;;21.99;52.46;101457.41;5027233;28;45238;-66
2023/09/29 09:10:34;;;;;;;;;1.00;0.00;;;;;22.00;52.86;101460.94;5047650;28;45530;-66
2023/09/29 09:13:02;;;;;;;;;0.00;0.00;;;;;22.04;52.44;101478.59;5021077;28;45420;-66
2023/09/29 09:15:27;;;;;;;;;2.67;0.67;;;;;22.03;52.52;101461.66;5039340;28;45432;-66
2023/09/29 09:17:53;;;;;;;;;1.00;0.00;;;;;22.07;52.23;101476.63;5039227;28;45246;-66
2023/09/29 09:20:19;;;;;;;;;0.00;0.00;;;;;22.15;52.36;101488.72;5039067;28;45325;-66
2023/09/29 09:22:57;;;;;;;;;0.00;0.00;;;;;22.17;52.47;101494.88;5039019;28;45301;-66
2023/09/29 09:25:37;;;;;;;;;0.00;0.00;;;;;22.23;52.11;101500.78;5038847;28;45305;-66
2023/09/29 09:28:03;;;;;;;;;0.00;0.00;;;;;22.26;52.13;101499.75;5040011;28;45246;-66
2023/09/29 09:30:35;;;;;;;;;0.00;0.00;;;;;22.23;52.42;101494.56;5040861;28;46445;-66
2023/09/29 09:33:02;;;;;;;;;0.00;0.00;;;;;22.33;52.08;101513.72;5042756;28;45307;-65
2023/09/29 09:35:28;;;;;;;;;0.00;0.00;;;;;22.33;52.15;101509.22;5023809;28;45454;-65
2023/09/29 09:37:54;;;;;;;;;0.00;0.00;;;;;22.36;51.75;101510.84;5021274;28;45246;-65
2023/09/29 09:40:26;;;;;;;;;0.00;0.00;;;;;22.42;51.83;101539.19;5039739;28;46265;-65
2023/09/29 09:42:53;;;;;;;;;1.00;1.00;;;;;22.45;52.12;101539.00;5025059;28;45176;-66
2023/09/29 09:45:20;;;;;;;;;1.00;0.00;;;;;22.43;51.51;101541.78;5041870;28;46599;-66
2023/09/29 09:47:46;;;;;;;;;0.00;0.00;;;;;22.46;51.68;101543.41;5042360;28;45266;-66
2023/09/29 09:50:14;;;;;;;;;0.00;0.00;;;;;22.49;51.71;101551.28;5042001;28;45427;-65
2023/09/29 09:52:42;;;;;;;;;0.00;0.00;;;;;22.53;51.66;101552.88;5042394;28;45441;-60
2023/09/29 09:55:15;;;;;;;;;0.00;0.00;;;;;22.50;51.83;101553.91;5040854;28;45535;-62
2023/09/29 09:57:43;;;;;;;;;2.00;0.67;;;;;22.48;51.72;101555.78;5049493;28;45533;-62
2023/09/29 10:00:12;;;;;;;;;2.00;1.67;;;;;22.50;51.54;101569.09;5041776;28;46486;-62
2023/09/29 10:02:43;;;;;;;;;0.00;0.00;;;;;22.49;51.61;101562.00;5042005;28;45467;-62
2023/09/29 10:05:16;;;;;;;;;1.00;0.00;;;;;22.47;51.45;101572.78;5029131;28;45544;-62
2023/09/29 10:07:49;;;;;;;;;0.00;0.00;;;;;22.46;51.46;101567.53;5042263;28;45697;-62
2023/09/29 10:10:34;;;;;;;;;0.00;0.00;;;;;22.47;51.50;101567.44;5052710;28;45473;-62
2023/09/29 10:13:01;;;;;;;;;0.00;0.00;;;;;22.45;51.19;101564.00;5041298;28;45415;-62
2023/09/29 10:15:30;;;;;;;;;0.67;0.00;;;;;22.49;51.18;101573.59;5041870;28;45444;-62
2023/09/29 10:17:59;;;;;;;;;2.33;0.00;;;;;22.52;51.49;101577.91;5041628;28;45230;-62
2023/09/29 10:20:26;;;;;;;;;1.33;1.33;;;;;22.55;51.05;101583.09;5041578;28;46437;-61
2023/09/29 10:23:06;;;;;;;;;1.00;1.00;;;;;22.58;51.24;101593.69;5028738;28;45285;-62
2023/09/29 10:25:35;;;;;;;;;0.67;0.00;;;;;22.62;51.21;101599.75;5040666;28;45352;-61
2023/09/29 10:28:06;;;;;;;;;0.00;0.00;;;;;22.64;51.09;101604.06;5041390;28;45478;-62
2023/09/29 10:30:32;;;;;;;;;1.33;0.33;;;;;22.66;51.20;101604.00;5041098;28;46299;-62
2023/09/29 10:33:11;;;;;;;;;2.00;1.00;;;;;22.66;51.25;101610.19;5041607;28;45446;-62
2023/09/29 10:35:46;;;;;;;;;1.00;1.00;;;;;22.63;51.30;101613.06;5041581;28;45241;-62
2023/09/29 10:38:24;;;;;;;;;2.00;1.00;;;;;22.64;50.92;101613.91;5041288;28;45555;-62
2023/09/29 10:40:50;;;;;;;;;1.00;1.00;;;;;22.64;51.17;101621.94;5041340;28;45421;-62
2023/09/29 10:43:22;;;;;;;;;2.00;1.00;;;;;22.59;51.18;101622.19;5023400;28;45489;-62
2023/09/29 10:45:50;;;;;;;;;0.33;0.00;;;;;22.60;51.37;101623.91;5041561;28;45364;-62
2023/09/29 10:48:16;;;;;;;;;1.33;1.00;;;;;22.60;51.08;101631.94;5041301;28;45243;-62
2023/09/29 10:50:51;;;;;;;;;1.67;1.67;;;;;22.60;51.10;101636.44;5040987;28;46019;-62
2023/09/29 10:53:21;;;;;;;;;2.67;0.33;;;;;22.59;51.21;101635.59;5045157;28;45349;-62
2023/09/29 10:55:49;;;;;;;;;1.00;1.00;;;;;22.58;51.11;101630.28;5058466;28;45383;-62
2023/09/29 10:58:16;;;;;;;;;2.00;2.00;;;;;22.60;51.08;101625.72;5043943;28;45273;-62
2023/09/29 11:00:49;;;;;;;;;2.00;0.67;;;;;22.61;50.78;101641.72;5040908;28;45597;-62
2023/09/29 11:03:16;;;;;;;;;0.67;0.67;;;;;22.59;50.70;101630.22;5041086;28;45440;-62
2023/09/29 11:05:58;;;;;;;;;3.67;1.00;;;;;22.67;50.54;101635.19;5033335;28;45426;-62
2023/09/29 11:08:34;;;;;;;;;2.00;1.67;;;;;22.71;50.72;101636.75;5035720;28;45201;-62
2023/09/29 11:11:00;;;;;;;;;3.33;0.00;;;;;22.79;50.51;101644.41;5045159;28;45689;-62
2023/09/29 11:13:27;;;;;;;;;2.00;2.00;;;;;22.86;50.97;101641.31;5040427;28;45357;-62
2023/09/29 11:15:53;;;;;;;;;3.00;2.00;;;;;22.97;50.95;101640.75;5040721;28;45529;-62
2023/09/29 11:18:33;;;;;;;;;2.67;1.00;;;;;23.05;50.63;101637.69;5040697;28;45344;-62
2023/09/29 11:21:00;;;;;;;;;3.00;1.00;;;;;23.22;50.37;101639.50;5040576;28;45328;-62